Terminal Aerodrome Forecast
Issued by NWS Buffalo, NY

Home | Current Version | Previous Version | Text Only | Print | Product List | Glossary On
Versions: 1 2 3 4 5 6 7 8 9 10 11 12 13 14 15 16 17 18 19 20 21 22 23 24 25 26 27 28 29 30
000
FTUS41 KBUF 042300 RRA
TAFART
TAF
KART 042341Z 0500/0524 25012G20KT P6SM VCSH SCT035 OVC050
     FM050300 28010KT P6SM SCT050 BKN120
     FM051200 32008KT P6SM BKN120
     FM051800 29008KT P6SM BKN120=

USA.gov is the U.S. government's official web portal to all federal, state and local government web resources and services.